sensor_id;sensor_type;location;lat;lon;timestamp;P1;durP1;ratioP1;P2;durP2;ratioP2
54745;SDS011;40640;48.130;11.356;2023-02-21T00:00:00;7.40;;;2.13;;
54745;SDS011;40640;48.130;11.356;2023-02-21T00:04:21;4.72;;;1.90;;
54745;SDS011;40640;48.130;11.356;2023-02-21T00:08:42;4.05;;;1.58;;
54745;SDS011;40640;48.130;11.356;2023-02-21T00:13:02;3.75;;;1.63;;
54745;SDS011;40640;48.130;11.356;2023-02-21T00:17:23;4.18;;;1.90;;
54745;SDS011;40640;48.130;11.356;2023-02-21T00:21:43;4.13;;;1.95;;
54745;SDS011;40640;48.130;11.356;2023-02-21T00:26:04;4.28;;;1.88;;
54745;SDS011;40640;48.130;11.356;2023-02-21T00:30:25;3.20;;;1.88;;
54745;SDS011;40640;48.130;11.356;2023-02-21T00:34:45;4.25;;;2.08;;
54745;SDS011;40640;48.130;11.356;2023-02-21T00:39:05;6.80;;;2.30;;
54745;SDS011;40640;48.130;11.356;2023-02-21T00:43:30;4.35;;;2.30;;
54745;SDS011;40640;48.130;11.356;2023-02-21T00:47:52;5.97;;;2.63;;
54745;SDS011;40640;48.130;11.356;2023-02-21T00:52:12;7.75;;;2.95;;
54745;SDS011;40640;48.130;11.356;2023-02-21T00:56:33;5.55;;;1.98;;
54745;SDS011;40640;48.130;11.356;2023-02-21T01:00:56;6.97;;;2.00;;
54745;SDS011;40640;48.130;11.356;2023-02-21T01:05:16;3.95;;;2.20;;
54745;SDS011;40640;48.130;11.356;2023-02-21T01:09:37;5.30;;;2.28;;
54745;SDS011;40640;48.130;11.356;2023-02-21T01:13:57;4.85;;;2.30;;
54745;SDS011;40640;48.130;11.356;2023-02-21T01:18:19;3.83;;;2.42;;
54745;SDS011;40640;48.130;11.356;2023-02-21T01:22:39;9.55;;;3.38;;
54745;SDS011;40640;48.130;11.356;2023-02-21T01:26:59;4.82;;;2.30;;
54745;SDS011;40640;48.130;11.356;2023-02-21T01:31:22;4.40;;;2.00;;
54745;SDS011;40640;48.130;11.356;2023-02-21T01:35:44;4.68;;;3.15;;
54745;SDS011;40640;48.130;11.356;2023-02-21T01:40:05;6.50;;;2.70;;
54745;SDS011;40640;48.130;11.356;2023-02-21T01:44:35;8.50;;;2.47;;
54745;SDS011;40640;48.130;11.356;2023-02-21T01:48:58;6.03;;;2.30;;
54745;SDS011;40640;48.130;11.356;2023-02-21T01:53:24;5.10;;;2.30;;
54745;SDS011;40640;48.130;11.356;2023-02-21T01:57:45;4.55;;;2.33;;
54745;SDS011;40640;48.130;11.356;2023-02-21T02:02:08;4.57;;;2.20;;
54745;SDS011;40640;48.130;11.356;2023-02-21T02:06:32;5.32;;;2.42;;
54745;SDS011;40640;48.130;11.356;2023-02-21T02:10:55;6.28;;;2.47;;
54745;SDS011;40640;48.130;11.356;2023-02-21T02:15:30;8.35;;;2.70;;
54745;SDS011;40640;48.130;11.356;2023-02-21T02:19:53;4.27;;;2.60;;
54745;SDS011;40640;48.130;11.356;2023-02-21T02:28:52;3.72;;;2.45;;
54745;SDS011;40640;48.130;11.356;2023-02-21T02:38:01;5.72;;;2.75;;
54745;SDS011;40640;48.130;11.356;2023-02-21T02:42:15;3.97;;;2.33;;
54745;SDS011;40640;48.130;11.356;2023-02-21T02:46:26;5.40;;;2.72;;
54745;SDS011;40640;48.130;11.356;2023-02-21T02:50:32;5.07;;;3.03;;
54745;SDS011;40640;48.130;11.356;2023-02-21T02:54:37;7.07;;;2.78;;
54745;SDS011;40640;48.130;11.356;2023-02-21T02:58:43;4.35;;;2.78;;
54745;SDS011;40640;48.130;11.356;2023-02-21T03:02:54;6.43;;;2.90;;
54745;SDS011;40640;48.130;11.356;2023-02-21T03:07:06;6.05;;;2.88;;
54745;SDS011;40640;48.130;11.356;2023-02-21T03:11:18;7.93;;;2.80;;
54745;SDS011;40640;48.130;11.356;2023-02-21T03:15:24;6.93;;;2.95;;
54745;SDS011;40640;48.130;11.356;2023-02-21T03:19:30;4.95;;;2.90;;
54745;SDS011;40640;48.130;11.356;2023-02-21T03:27:42;5.13;;;2.45;;
54745;SDS011;40640;48.130;11.356;2023-02-21T03:31:54;4.90;;;3.10;;
54745;SDS011;40640;48.130;11.356;2023-02-21T03:36:00;4.65;;;2.80;;
54745;SDS011;40640;48.130;11.356;2023-02-21T03:40:06;8.20;;;3.38;;
54745;SDS011;40640;48.130;11.356;2023-02-21T03:44:13;5.80;;;3.00;;
54745;SDS011;40640;48.130;11.356;2023-02-21T03:48:16;9.00;;;3.10;;
54745;SDS011;40640;48.130;11.356;2023-02-21T03:52:36;7.30;;;2.78;;
54745;SDS011;40640;48.130;11.356;2023-02-21T03:56:39;7.32;;;3.30;;
54745;SDS011;40640;48.130;11.356;2023-02-21T04:00:58;8.30;;;2.72;;
54745;SDS011;40640;48.130;11.356;2023-02-21T04:05:02;7.93;;;3.00;;
54745;SDS011;40640;48.130;11.356;2023-02-21T04:09:05;6.68;;;3.10;;
54745;SDS011;40640;48.130;11.356;2023-02-21T04:13:09;6.53;;;3.20;;
54745;SDS011;40640;48.130;11.356;2023-02-21T04:17:18;8.43;;;3.38;;
54745;SDS011;40640;48.130;11.356;2023-02-21T04:21:21;6.07;;;3.15;;
54745;SDS011;40640;48.130;11.356;2023-02-21T04:25:27;6.28;;;3.38;;
54745;SDS011;40640;48.130;11.356;2023-02-21T04:29:36;7.32;;;3.22;;
54745;SDS011;40640;48.130;11.356;2023-02-21T04:33:40;7.55;;;3.53;;
54745;SDS011;40640;48.130;11.356;2023-02-21T04:37:46;12.82;;;3.50;;
54745;SDS011;40640;48.130;11.356;2023-02-21T04:41:49;6.70;;;3.17;;
54745;SDS011;40640;48.130;11.356;2023-02-21T04:45:52;6.80;;;3.05;;
54745;SDS011;40640;48.130;11.356;2023-02-21T04:49:56;8.68;;;3.22;;
54745;SDS011;40640;48.130;11.356;2023-02-21T04:53:59;6.53;;;2.83;;
54745;SDS011;40640;48.130;11.356;2023-02-21T04:58:02;7.55;;;3.58;;
54745;SDS011;40640;48.130;11.356;2023-02-21T05:02:05;10.85;;;3.33;;
54745;SDS011;40640;48.130;11.356;2023-02-21T05:06:10;5.95;;;3.00;;
54745;SDS011;40640;48.130;11.356;2023-02-21T05:10:19;12.95;;;4.65;;
54745;SDS011;40640;48.130;11.356;2023-02-21T05:14:21;8.85;;;3.38;;
54745;SDS011;40640;48.130;11.356;2023-02-21T05:18:24;6.10;;;3.50;;
54745;SDS011;40640;48.130;11.356;2023-02-21T05:22:30;10.07;;;3.03;;
54745;SDS011;40640;48.130;11.356;2023-02-21T05:26:33;6.80;;;3.45;;
54745;SDS011;40640;48.130;11.356;2023-02-21T05:30:38;6.93;;;4.05;;
54745;SDS011;40640;48.130;11.356;2023-02-21T05:34:41;10.90;;;3.53;;
54745;SDS011;40640;48.130;11.356;2023-02-21T05:38:49;7.50;;;3.70;;
54745;SDS011;40640;48.130;11.356;2023-02-21T05:46:56;5.40;;;3.22;;
54745;SDS011;40640;48.130;11.356;2023-02-21T05:50:59;6.03;;;3.28;;
54745;SDS011;40640;48.130;11.356;2023-02-21T05:55:03;9.07;;;3.75;;
54745;SDS011;40640;48.130;11.356;2023-02-21T05:59:06;9.57;;;3.88;;
54745;SDS011;40640;48.130;11.356;2023-02-21T06:03:09;15.27;;;3.72;;
54745;SDS011;40640;48.130;11.356;2023-02-21T06:07:12;10.07;;;3.58;;
54745;SDS011;40640;48.130;11.356;2023-02-21T06:11:20;9.23;;;3.20;;
54745;SDS011;40640;48.130;11.356;2023-02-21T06:15:24;6.00;;;3.25;;
54745;SDS011;40640;48.130;11.356;2023-02-21T06:19:27;5.38;;;3.47;;
54745;SDS011;40640;48.130;11.356;2023-02-21T06:23:33;9.85;;;3.70;;
54745;SDS011;40640;48.130;11.356;2023-02-21T06:27:37;8.10;;;3.13;;
54745;SDS011;40640;48.130;11.356;2023-02-21T06:31:40;5.93;;;3.53;;
54745;SDS011;40640;48.130;11.356;2023-02-21T06:35:43;12.20;;;3.83;;
54745;SDS011;40640;48.130;11.356;2023-02-21T06:39:46;6.35;;;3.10;;
54745;SDS011;40640;48.130;11.356;2023-02-21T06:43:50;7.20;;;3.60;;
54745;SDS011;40640;48.130;11.356;2023-02-21T06:47:53;8.40;;;3.30;;
54745;SDS011;40640;48.130;11.356;2023-02-21T06:51:56;5.10;;;2.95;;
54745;SDS011;40640;48.130;11.356;2023-02-21T06:55:59;9.35;;;3.60;;
54745;SDS011;40640;48.130;11.356;2023-02-21T07:00:04;12.82;;;3.60;;
54745;SDS011;40640;48.130;11.356;2023-02-21T07:04:07;5.45;;;3.03;;
54745;SDS011;40640;48.130;11.356;2023-02-21T07:08:10;7.95;;;3.10;;
54745;SDS011;40640;48.130;11.356;2023-02-21T07:12:13;7.00;;;3.15;;
54745;SDS011;40640;48.130;11.356;2023-02-21T07:16:17;6.45;;;3.03;;
54745;SDS011;40640;48.130;11.356;2023-02-21T07:20:21;4.65;;;2.50;;
54745;SDS011;40640;48.130;11.356;2023-02-21T07:24:24;4.43;;;2.78;;
54745;SDS011;40640;48.130;11.356;2023-02-21T07:28:26;11.68;;;2.78;;
54745;SDS011;40640;48.130;11.356;2023-02-21T07:32:31;7.65;;;3.25;;
54745;SDS011;40640;48.130;11.356;2023-02-21T07:36:35;8.70;;;3.28;;
54745;SDS011;40640;48.130;11.356;2023-02-21T07:40:40;5.72;;;2.60;;
54745;SDS011;40640;48.130;11.356;2023-02-21T07:44:43;7.65;;;3.58;;
54745;SDS011;40640;48.130;11.356;2023-02-21T07:48:47;13.23;;;3.55;;
54745;SDS011;40640;48.130;11.356;2023-02-21T07:52:50;5.43;;;3.05;;
54745;SDS011;40640;48.130;11.356;2023-02-21T07:56:53;6.82;;;2.38;;
54745;SDS011;40640;48.130;11.356;2023-02-21T08:00:56;7.03;;;3.22;;
54745;SDS011;40640;48.130;11.356;2023-02-21T08:05:00;6.47;;;2.88;;
54745;SDS011;40640;48.130;11.356;2023-02-21T08:09:03;8.25;;;2.20;;
54745;SDS011;40640;48.130;11.356;2023-02-21T08:13:06;4.13;;;2.60;;
54745;SDS011;40640;48.130;11.356;2023-02-21T08:17:09;6.78;;;2.30;;
54745;SDS011;40640;48.130;11.356;2023-02-21T08:21:15;2.78;;;1.77;;
54745;SDS011;40640;48.130;11.356;2023-02-21T08:25:18;9.57;;;2.50;;
54745;SDS011;40640;48.130;11.356;2023-02-21T08:29:21;4.82;;;2.33;;
54745;SDS011;40640;48.130;11.356;2023-02-21T08:33:24;4.40;;;2.22;;
54745;SDS011;40640;48.130;11.356;2023-02-21T08:37:28;5.60;;;2.17;;
54745;SDS011;40640;48.130;11.356;2023-02-21T08:41:34;4.55;;;2.25;;
54745;SDS011;40640;48.130;11.356;2023-02-21T08:45:38;6.30;;;1.92;;
54745;SDS011;40640;48.130;11.356;2023-02-21T08:49:42;4.65;;;1.70;;
54745;SDS011;40640;48.130;11.356;2023-02-21T08:53:46;3.28;;;1.70;;
54745;SDS011;40640;48.130;11.356;2023-02-21T08:57:50;4.15;;;1.83;;
54745;SDS011;40640;48.130;11.356;2023-02-21T09:01:54;5.28;;;1.80;;
54745;SDS011;40640;48.130;11.356;2023-02-21T09:05:56;10.55;;;1.95;;
54745;SDS011;40640;48.130;11.356;2023-02-21T09:10:01;4.10;;;1.63;;
54745;SDS011;40640;48.130;11.356;2023-02-21T09:14:04;3.47;;;1.55;;
54745;SDS011;40640;48.130;11.356;2023-02-21T09:18:07;3.72;;;1.75;;
54745;SDS011;40640;48.130;11.356;2023-02-21T09:22:10;3.35;;;1.60;;
54745;SDS011;40640;48.130;11.356;2023-02-21T09:26:14;7.10;;;1.75;;
54745;SDS011;40640;48.130;11.356;2023-02-21T09:30:18;5.07;;;1.80;;
54745;SDS011;40640;48.130;11.356;2023-02-21T09:34:24;3.90;;;1.58;;
54745;SDS011;40640;48.130;11.356;2023-02-21T09:38:27;4.25;;;1.70;;
54745;SDS011;40640;48.130;11.356;2023-02-21T09:42:31;2.00;;;1.30;;
54745;SDS011;40640;48.130;11.356;2023-02-21T09:46:37;3.75;;;1.65;;
54745;SDS011;40640;48.130;11.356;2023-02-21T09:50:43;1.35;;;1.25;;
54745;SDS011;40640;48.130;11.356;2023-02-21T09:54:50;1.55;;;1.25;;
54745;SDS011;40640;48.130;11.356;2023-02-21T09:58:57;2.58;;;1.48;;
54745;SDS011;40640;48.130;11.356;2023-02-21T10:03:03;1.92;;;1.50;;
54745;SDS011;40640;48.130;11.356;2023-02-21T10:07:20;2.15;;;1.70;;
54745;SDS011;40640;48.130;11.356;2023-02-21T10:11:34;1.60;;;1.50;;
54745;SDS011;40640;48.130;11.356;2023-02-21T10:15:44;2.03;;;1.80;;
54745;SDS011;40640;48.130;11.356;2023-02-21T10:19:52;2.03;;;1.80;;
54745;SDS011;40640;48.130;11.356;2023-02-21T10:23:56;2.20;;;1.77;;
54745;SDS011;40640;48.130;11.356;2023-02-21T10:28:07;4.03;;;1.88;;
54745;SDS011;40640;48.130;11.356;2023-02-21T10:32:15;2.70;;;1.70;;
54745;SDS011;40640;48.130;11.356;2023-02-21T10:36:18;1.95;;;1.70;;
54745;SDS011;40640;48.130;11.356;2023-02-21T10:40:27;1.88;;;1.77;;
54745;SDS011;40640;48.130;11.356;2023-02-21T10:44:34;1.92;;;1.60;;
54745;SDS011;40640;48.130;11.356;2023-02-21T10:48:39;1.65;;;1.55;;
54745;SDS011;40640;48.130;11.356;2023-02-21T10:52:47;2.10;;;1.80;;
54745;SDS011;40640;48.130;11.356;2023-02-21T10:56:51;1.85;;;1.75;;
54745;SDS011;40640;48.130;11.356;2023-02-21T11:00:55;1.80;;;1.70;;
54745;SDS011;40640;48.130;11.356;2023-02-21T11:05:11;2.33;;;1.83;;
54745;SDS011;40640;48.130;11.356;2023-02-21T11:09:23;1.60;;;1.50;;
54745;SDS011;40640;48.130;11.356;2023-02-21T11:13:32;2.22;;;1.60;;
54745;SDS011;40640;48.130;11.356;2023-02-21T11:17:36;1.73;;;1.63;;
54745;SDS011;40640;48.130;11.356;2023-02-21T11:21:40;3.50;;;1.60;;
54745;SDS011;40640;48.130;11.356;2023-02-21T11:25:45;4.10;;;1.50;;
54745;SDS011;40640;48.130;11.356;2023-02-21T11:29:50;1.45;;;1.40;;
54745;SDS011;40640;48.130;11.356;2023-02-21T11:33:55;1.63;;;1.50;;
54745;SDS011;40640;48.130;11.356;2023-02-21T11:38:02;1.70;;;1.50;;
54745;SDS011;40640;48.130;11.356;2023-02-21T11:42:22;1.50;;;1.40;;
54745;SDS011;40640;48.130;11.356;2023-02-21T11:46:33;4.70;;;1.55;;
54745;SDS011;40640;48.130;11.356;2023-02-21T11:50:41;1.63;;;1.52;;
54745;SDS011;40640;48.130;11.356;2023-02-21T11:54:51;3.50;;;1.50;;
54745;SDS011;40640;48.130;11.356;2023-02-21T11:58:55;1.42;;;1.33;;
54745;SDS011;40640;48.130;11.356;2023-02-21T12:03:16;1.40;;;1.30;;
54745;SDS011;40640;48.130;11.356;2023-02-21T12:07:31;1.70;;;1.33;;
54745;SDS011;40640;48.130;11.356;2023-02-21T12:11:46;7.18;;;1.67;;
54745;SDS011;40640;48.130;11.356;2023-02-21T12:16:07;1.92;;;1.67;;
54745;SDS011;40640;48.130;11.356;2023-02-21T12:20:19;2.30;;;1.48;;
54745;SDS011;40640;48.130;11.356;2023-02-21T12:29:01;5.15;;;1.50;;
54745;SDS011;40640;48.130;11.356;2023-02-21T12:33:15;1.38;;;1.25;;
54745;SDS011;40640;48.130;11.356;2023-02-21T12:37:27;2.78;;;1.25;;
54745;SDS011;40640;48.130;11.356;2023-02-21T12:41:40;1.45;;;1.30;;
54745;SDS011;40640;48.130;11.356;2023-02-21T12:45:55;1.98;;;1.40;;
54745;SDS011;40640;48.130;11.356;2023-02-21T12:50:05;2.05;;;1.23;;
54745;SDS011;40640;48.130;11.356;2023-02-21T12:54:17;1.20;;;1.13;;
54745;SDS011;40640;48.130;11.356;2023-02-21T12:58:23;2.08;;;1.48;;
54745;SDS011;40640;48.130;11.356;2023-02-21T13:02:33;1.17;;;1.00;;
54745;SDS011;40640;48.130;11.356;2023-02-21T13:06:45;2.03;;;1.23;;
54745;SDS011;40640;48.130;11.356;2023-02-21T13:10:54;2.67;;;1.27;;
54745;SDS011;40640;48.130;11.356;2023-02-21T13:15:08;1.67;;;1.30;;
54745;SDS011;40640;48.130;11.356;2023-02-21T13:19:19;2.35;;;1.20;;
54745;SDS011;40640;48.130;11.356;2023-02-21T13:23:42;1.75;;;1.20;;
54745;SDS011;40640;48.130;11.356;2023-02-21T13:28:18;1.83;;;0.95;;
54745;SDS011;40640;48.130;11.356;2023-02-21T13:32:24;1.20;;;1.00;;
54745;SDS011;40640;48.130;11.356;2023-02-21T13:36:29;1.10;;;1.00;;
54745;SDS011;40640;48.130;11.356;2023-02-21T13:40:35;0.90;;;0.70;;
54745;SDS011;40640;48.130;11.356;2023-02-21T13:44:40;1.58;;;0.98;;
54745;SDS011;40640;48.130;11.356;2023-02-21T13:48:45;0.80;;;0.80;;
54745;SDS011;40640;48.130;11.356;2023-02-21T13:53:29;2.15;;;1.17;;
54745;SDS011;40640;48.130;11.356;2023-02-21T13:57:34;1.92;;;1.13;;
54745;SDS011;40640;48.130;11.356;2023-02-21T14:01:40;1.20;;;1.10;;
54745;SDS011;40640;48.130;11.356;2023-02-21T14:10:25;4.72;;;1.42;;
54745;SDS011;40640;48.130;11.356;2023-02-21T14:14:33;1.17;;;1.00;;
54745;SDS011;40640;48.130;11.356;2023-02-21T14:18:41;2.45;;;1.00;;
54745;SDS011;40640;48.130;11.356;2023-02-21T14:22:48;3.50;;;1.27;;
54745;SDS011;40640;48.130;11.356;2023-02-21T14:26:56;1.23;;;1.10;;
54745;SDS011;40640;48.130;11.356;2023-02-21T14:31:03;1.77;;;1.15;;
54745;SDS011;40640;48.130;11.356;2023-02-21T14:35:13;2.65;;;1.10;;
54745;SDS011;40640;48.130;11.356;2023-02-21T14:39:25;2.10;;;0.90;;
54745;SDS011;40640;48.130;11.356;2023-02-21T14:48:11;1.27;;;0.90;;
54745;SDS011;40640;48.130;11.356;2023-02-21T14:52:40;1.42;;;0.80;;
54745;SDS011;40640;48.130;11.356;2023-02-21T14:56:57;1.50;;;0.80;;
54745;SDS011;40640;48.130;11.356;2023-02-21T15:01:15;10.48;;;1.10;;
54745;SDS011;40640;48.130;11.356;2023-02-21T15:05:35;1.83;;;0.75;;
54745;SDS011;40640;48.130;11.356;2023-02-21T15:09:41;2.65;;;1.13;;
54745;SDS011;40640;48.130;11.356;2023-02-21T15:13:44;1.40;;;0.80;;
54745;SDS011;40640;48.130;11.356;2023-02-21T15:18:00;3.17;;;0.80;;
54745;SDS011;40640;48.130;11.356;2023-02-21T15:22:15;1.13;;;0.90;;
54745;SDS011;40640;48.130;11.356;2023-02-21T15:26:25;1.85;;;0.98;;
54745;SDS011;40640;48.130;11.356;2023-02-21T15:30:31;1.40;;;1.00;;
54745;SDS011;40640;48.130;11.356;2023-02-21T15:34:38;1.40;;;1.02;;
54745;SDS011;40640;48.130;11.356;2023-02-21T15:38:44;2.58;;;0.93;;
54745;SDS011;40640;48.130;11.356;2023-02-21T15:46:55;1.23;;;0.73;;
54745;SDS011;40640;48.130;11.356;2023-02-21T15:51:04;1.55;;;0.70;;
54745;SDS011;40640;48.130;11.356;2023-02-21T15:55:14;3.33;;;0.98;;
54745;SDS011;40640;48.130;11.356;2023-02-21T15:59:28;1.70;;;1.02;;
54745;SDS011;40640;48.130;11.356;2023-02-21T16:03:33;2.67;;;1.00;;
54745;SDS011;40640;48.130;11.356;2023-02-21T16:07:41;3.95;;;1.40;;
54745;SDS011;40640;48.130;11.356;2023-02-21T16:11:49;4.55;;;1.10;;
54745;SDS011;40640;48.130;11.356;2023-02-21T16:15:57;1.48;;;0.93;;
54745;SDS011;40640;48.130;11.356;2023-02-21T16:20:01;4.20;;;1.30;;
54745;SDS011;40640;48.130;11.356;2023-02-21T16:24:28;4.57;;;1.57;;
54745;SDS011;40640;48.130;11.356;2023-02-21T16:28:33;4.32;;;1.27;;
54745;SDS011;40640;48.130;11.356;2023-02-21T16:32:37;2.97;;;1.70;;
54745;SDS011;40640;48.130;11.356;2023-02-21T16:36:40;5.30;;;1.27;;
54745;SDS011;40640;48.130;11.356;2023-02-21T16:40:44;3.92;;;1.55;;
54745;SDS011;40640;48.130;11.356;2023-02-21T16:44:48;2.90;;;1.65;;
54745;SDS011;40640;48.130;11.356;2023-02-21T16:48:51;8.70;;;1.90;;
54745;SDS011;40640;48.130;11.356;2023-02-21T16:52:54;13.25;;;1.83;;
54745;SDS011;40640;48.130;11.356;2023-02-21T16:56:58;11.02;;;2.08;;
54745;SDS011;40640;48.130;11.356;2023-02-21T17:01:02;2.90;;;1.77;;
54745;SDS011;40640;48.130;11.356;2023-02-21T17:05:11;12.95;;;2.00;;
54745;SDS011;40640;48.130;11.356;2023-02-21T17:09:21;12.60;;;1.90;;
54745;SDS011;40640;48.130;11.356;2023-02-21T17:13:27;5.43;;;1.88;;
54745;SDS011;40640;48.130;11.356;2023-02-21T17:17:30;9.75;;;2.88;;
54745;SDS011;40640;48.130;11.356;2023-02-21T17:21:33;8.65;;;3.20;;
54745;SDS011;40640;48.130;11.356;2023-02-21T17:25:36;11.57;;;4.03;;
54745;SDS011;40640;48.130;11.356;2023-02-21T17:29:40;12.77;;;3.17;;
54745;SDS011;40640;48.130;11.356;2023-02-21T17:33:43;10.43;;;3.38;;
54745;SDS011;40640;48.130;11.356;2023-02-21T17:37:45;9.32;;;4.57;;
54745;SDS011;40640;48.130;11.356;2023-02-21T17:41:50;12.07;;;3.20;;
54745;SDS011;40640;48.130;11.356;2023-02-21T17:45:55;9.52;;;3.72;;
54745;SDS011;40640;48.130;11.356;2023-02-21T17:49:57;8.95;;;3.25;;
54745;SDS011;40640;48.130;11.356;2023-02-21T17:54:03;10.60;;;3.85;;
54745;SDS011;40640;48.130;11.356;2023-02-21T17:58:06;14.25;;;3.22;;
54745;SDS011;40640;48.130;11.356;2023-02-21T18:02:11;15.63;;;4.30;;
54745;SDS011;40640;48.130;11.356;2023-02-21T18:06:15;13.93;;;3.50;;
54745;SDS011;40640;48.130;11.356;2023-02-21T18:10:19;14.88;;;4.93;;
54745;SDS011;40640;48.130;11.356;2023-02-21T18:14:25;9.10;;;4.13;;
54745;SDS011;40640;48.130;11.356;2023-02-21T18:18:31;12.63;;;4.80;;
54745;SDS011;40640;48.130;11.356;2023-02-21T18:22:35;8.13;;;2.97;;
54745;SDS011;40640;48.130;11.356;2023-02-21T18:26:39;4.53;;;2.50;;
54745;SDS011;40640;48.130;11.356;2023-02-21T18:30:42;5.13;;;3.03;;
54745;SDS011;40640;48.130;11.356;2023-02-21T18:34:46;8.20;;;2.78;;
54745;SDS011;40640;48.130;11.356;2023-02-21T18:38:49;11.45;;;3.78;;
54745;SDS011;40640;48.130;11.356;2023-02-21T18:42:51;9.07;;;3.58;;
54745;SDS011;40640;48.130;11.356;2023-02-21T18:46:54;8.63;;;3.75;;
54745;SDS011;40640;48.130;11.356;2023-02-21T18:51:00;11.68;;;4.20;;
54745;SDS011;40640;48.130;11.356;2023-02-21T18:55:03;16.70;;;7.97;;
54745;SDS011;40640;48.130;11.356;2023-02-21T18:59:06;10.90;;;5.22;;
54745;SDS011;40640;48.130;11.356;2023-02-21T19:03:11;15.48;;;5.93;;
54745;SDS011;40640;48.130;11.356;2023-02-21T19:07:15;10.82;;;5.50;;
54745;SDS011;40640;48.130;11.356;2023-02-21T19:11:18;10.02;;;3.50;;
54745;SDS011;40640;48.130;11.356;2023-02-21T19:15:21;5.30;;;2.33;;
54745;SDS011;40640;48.130;11.356;2023-02-21T19:19:24;9.88;;;3.65;;
54745;SDS011;40640;48.130;11.356;2023-02-21T19:23:32;7.72;;;3.08;;
54745;SDS011;40640;48.130;11.356;2023-02-21T19:27:35;6.22;;;2.83;;
54745;SDS011;40640;48.130;11.356;2023-02-21T19:31:38;11.32;;;4.28;;
54745;SDS011;40640;48.130;11.356;2023-02-21T19:35:41;5.22;;;3.22;;
54745;SDS011;40640;48.130;11.356;2023-02-21T19:39:45;10.68;;;3.92;;
54745;SDS011;40640;48.130;11.356;2023-02-21T19:43:49;7.07;;;3.72;;
54745;SDS011;40640;48.130;11.356;2023-02-21T19:47:51;6.75;;;3.85;;
54745;SDS011;40640;48.130;11.356;2023-02-21T19:51:56;18.52;;;4.75;;
54745;SDS011;40640;48.130;11.356;2023-02-21T19:56:01;15.00;;;5.13;;
54745;SDS011;40640;48.130;11.356;2023-02-21T20:00:04;10.43;;;5.43;;
54745;SDS011;40640;48.130;11.356;2023-02-21T20:04:10;10.73;;;5.53;;
54745;SDS011;40640;48.130;11.356;2023-02-21T20:08:13;8.68;;;4.43;;
54745;SDS011;40640;48.130;11.356;2023-02-21T20:12:17;12.57;;;5.07;;
54745;SDS011;40640;48.130;11.356;2023-02-21T20:16:23;12.52;;;4.30;;
54745;SDS011;40640;48.130;11.356;2023-02-21T20:20:26;8.75;;;4.30;;
54745;SDS011;40640;48.130;11.356;2023-02-21T20:24:29;9.85;;;4.53;;
54745;SDS011;40640;48.130;11.356;2023-02-21T20:28:33;9.77;;;3.83;;
54745;SDS011;40640;48.130;11.356;2023-02-21T20:32:36;8.27;;;4.65;;
54745;SDS011;40640;48.130;11.356;2023-02-21T20:36:40;10.10;;;4.30;;
54745;SDS011;40640;48.130;11.356;2023-02-21T20:40:45;11.60;;;4.20;;
54745;SDS011;40640;48.130;11.356;2023-02-21T20:44:49;11.88;;;6.63;;
54745;SDS011;40640;48.130;11.356;2023-02-21T20:48:53;14.63;;;7.03;;
54745;SDS011;40640;48.130;11.356;2023-02-21T20:52:58;15.90;;;6.60;;
54745;SDS011;40640;48.130;11.356;2023-02-21T20:57:02;18.50;;;7.68;;
54745;SDS011;40640;48.130;11.356;2023-02-21T21:01:10;19.52;;;8.23;;
54745;SDS011;40640;48.130;11.356;2023-02-21T21:05:16;16.50;;;7.10;;
54745;SDS011;40640;48.130;11.356;2023-02-21T21:09:19;20.23;;;7.47;;
54745;SDS011;40640;48.130;11.356;2023-02-21T21:13:29;19.20;;;7.18;;
54745;SDS011;40640;48.130;11.356;2023-02-21T21:17:33;19.25;;;6.05;;
54745;SDS011;40640;48.130;11.356;2023-02-21T21:21:36;11.95;;;5.40;;
54745;SDS011;40640;48.130;11.356;2023-02-21T21:25:39;7.03;;;4.22;;
54745;SDS011;40640;48.130;11.356;2023-02-21T21:29:42;14.45;;;4.63;;
54745;SDS011;40640;48.130;11.356;2023-02-21T21:33:47;7.40;;;4.10;;
54745;SDS011;40640;48.130;11.356;2023-02-21T21:37:50;10.13;;;4.30;;
54745;SDS011;40640;48.130;11.356;2023-02-21T21:41:54;12.32;;;5.03;;
54745;SDS011;40640;48.130;11.356;2023-02-21T21:45:58;8.43;;;3.90;;
54745;SDS011;40640;48.130;11.356;2023-02-21T21:50:03;6.80;;;3.20;;
54745;SDS011;40640;48.130;11.356;2023-02-21T21:54:07;22.08;;;3.75;;
54745;SDS011;40640;48.130;11.356;2023-02-21T21:58:10;20.15;;;6.85;;
54745;SDS011;40640;48.130;11.356;2023-02-21T22:02:14;14.95;;;5.10;;
54745;SDS011;40640;48.130;11.356;2023-02-21T22:06:18;14.05;;;4.72;;
54745;SDS011;40640;48.130;11.356;2023-02-21T22:10:22;17.58;;;6.82;;
54745;SDS011;40640;48.130;11.356;2023-02-21T22:14:26;23.35;;;7.82;;
54745;SDS011;40640;48.130;11.356;2023-02-21T22:18:29;20.85;;;7.50;;
54745;SDS011;40640;48.130;11.356;2023-02-21T22:22:33;20.88;;;8.57;;
54745;SDS011;40640;48.130;11.356;2023-02-21T22:26:36;12.55;;;4.95;;
54745;SDS011;40640;48.130;11.356;2023-02-21T22:30:40;16.00;;;5.63;;
54745;SDS011;40640;48.130;11.356;2023-02-21T22:34:42;10.77;;;5.35;;
54745;SDS011;40640;48.130;11.356;2023-02-21T22:38:47;10.25;;;4.35;;
54745;SDS011;40640;48.130;11.356;2023-02-21T22:42:50;10.60;;;5.38;;
54745;SDS011;40640;48.130;11.356;2023-02-21T22:46:54;11.77;;;5.40;;
54745;SDS011;40640;48.130;11.356;2023-02-21T22:50:59;15.93;;;6.22;;
54745;SDS011;40640;48.130;11.356;2023-02-21T22:55:04;11.05;;;5.43;;
54745;SDS011;40640;48.130;11.356;2023-02-21T22:59:07;13.88;;;6.20;;
54745;SDS011;40640;48.130;11.356;2023-02-21T23:03:12;16.33;;;6.35;;
54745;SDS011;40640;48.130;11.356;2023-02-21T23:07:16;14.98;;;7.57;;
54745;SDS011;40640;48.130;11.356;2023-02-21T23:11:22;14.48;;;6.03;;
54745;SDS011;40640;48.130;11.356;2023-02-21T23:15:25;14.27;;;6.55;;
54745;SDS011;40640;48.130;11.356;2023-02-21T23:19:28;14.48;;;6.35;;
54745;SDS011;40640;48.130;11.356;2023-02-21T23:23:32;13.30;;;6.85;;
54745;SDS011;40640;48.130;11.356;2023-02-21T23:27:36;10.90;;;5.43;;
54745;SDS011;40640;48.130;11.356;2023-02-21T23:31:39;7.63;;;4.28;;
54745;SDS011;40640;48.130;11.356;2023-02-21T23:35:43;10.77;;;4.75;;
54745;SDS011;40640;48.130;11.356;2023-02-21T23:39:49;27.23;;;11.13;;
54745;SDS011;40640;48.130;11.356;2023-02-21T23:43:53;19.42;;;7.80;;
54745;SDS011;40640;48.130;11.356;2023-02-21T23:47:58;13.60;;;4.40;;
54745;SDS011;40640;48.130;11.356;2023-02-21T23:52:01;7.18;;;3.50;;
54745;SDS011;40640;48.130;11.356;2023-02-21T23:56:04;6.68;;;3.47;;
